createdAt,value
2019-06-26T00:00:36.441Z,6.60
2019-06-26T00:01:35.525Z,6.80
2019-06-26T00:02:35.656Z,7.40
2019-06-26T00:03:35.528Z,6.70
2019-06-26T00:04:35.518Z,6.00
2019-06-26T00:05:35.518Z,6.30
2019-06-26T00:06:35.515Z,7.00
2019-06-26T00:07:35.531Z,6.70
2019-06-26T00:08:35.510Z,6.20
2019-06-26T00:09:35.509Z,7.20
2019-06-26T00:10:35.508Z,6.60
2019-06-26T00:11:35.504Z,6.80
2019-06-26T00:12:35.501Z,6.30
2019-06-26T00:22:54.326Z,6.30
2019-06-26T00:23:54.322Z,6.80
2019-06-26T00:24:54.322Z,6.10
2019-06-26T00:25:54.316Z,6.30
2019-06-26T00:26:54.315Z,6.70
2019-06-26T00:27:54.312Z,6.00
2019-06-26T00:28:54.310Z,6.60
2019-06-26T00:34:03.293Z,6.70
2019-06-26T00:35:03.288Z,7.20
2019-06-26T00:36:03.287Z,6.20
2019-06-26T00:37:03.285Z,6.60
2019-06-26T00:38:03.285Z,7.20
2019-06-26T00:39:03.283Z,6.50
2019-06-26T00:40:03.279Z,7.60
2019-06-26T00:41:03.275Z,6.90
2019-06-26T00:42:03.273Z,6.80
2019-06-26T00:43:03.270Z,6.80
2019-06-26T00:44:03.287Z,6.40
2019-06-26T00:45:03.266Z,6.70
2019-06-26T00:46:03.266Z,6.60
2019-06-26T00:47:03.262Z,6.50
2019-06-26T00:48:03.257Z,6.60
2019-06-26T00:49:03.255Z,7.00
2019-06-26T00:50:03.255Z,6.80
2019-06-26T00:51:03.254Z,6.70
2019-06-26T00:52:03.253Z,6.60
2019-06-26T00:53:03.248Z,6.50
2019-06-26T00:54:03.250Z,6.30
2019-06-26T00:55:03.257Z,6.90
2019-06-26T00:56:03.244Z,7.30
2019-06-26T00:57:03.238Z,6.50
2019-06-26T00:58:03.340Z,7.40
2019-06-26T00:59:03.244Z,6.80
2019-06-26T01:00:03.260Z,7.20
2019-06-26T01:01:03.280Z,6.70
2019-06-26T01:02:03.227Z,7.00
2019-06-26T01:03:03.227Z,7.00
2019-06-26T01:04:03.224Z,7.60
2019-06-26T01:05:03.225Z,7.20
2019-06-26T01:06:03.227Z,7.50
2019-06-26T01:07:03.231Z,7.20
2019-06-26T01:08:03.209Z,6.90
2019-06-26T01:09:03.209Z,7.50
2019-06-26T01:10:03.276Z,7.40
2019-06-26T01:11:03.205Z,7.70
2019-06-26T01:12:03.204Z,7.70
2019-06-26T01:13:03.202Z,7.70
2019-06-26T01:14:03.198Z,7.30
2019-06-26T01:15:03.245Z,7.20
2019-06-26T01:16:03.191Z,7.20
2019-06-26T01:17:03.192Z,7.00
2019-06-26T01:18:03.187Z,6.90
2019-06-26T01:20:05.711Z,7.40
2019-06-26T01:21:05.643Z,7.00
2019-06-26T01:22:05.641Z,7.60
2019-06-26T01:23:05.637Z,7.00
2019-06-26T01:24:05.636Z,8.00
2019-06-26T01:25:05.632Z,7.50
2019-06-26T01:26:05.630Z,7.30
2019-06-26T01:27:05.627Z,7.30
2019-06-26T01:28:05.623Z,7.30
2019-06-26T01:29:05.621Z,6.90
2019-06-26T01:30:05.621Z,7.60
2019-06-26T01:31:05.616Z,7.50
2019-06-26T01:32:05.615Z,7.40
2019-06-26T01:33:05.613Z,7.40
2019-06-26T01:34:05.613Z,7.40
2019-06-26T01:35:05.607Z,7.80
2019-06-26T01:36:05.604Z,7.50
2019-06-26T01:37:05.601Z,7.90
2019-06-26T01:38:05.599Z,7.50
2019-06-26T01:39:05.645Z,7.50
2019-06-26T01:40:05.613Z,7.20
2019-06-26T01:41:05.592Z,7.40
2019-06-26T01:42:05.590Z,7.60
2019-06-26T01:43:05.585Z,8.70
2019-06-26T01:44:14.758Z,8.40
2019-06-26T01:45:05.584Z,8.40
2019-06-26T01:46:05.591Z,8.60
2019-06-26T01:47:05.579Z,7.90
2019-06-26T01:48:05.579Z,7.00
2019-06-26T01:49:05.573Z,8.00
2019-06-26T01:50:05.572Z,8.00
2019-06-26T01:51:05.567Z,7.30
2019-06-26T01:52:05.561Z,7.50
2019-06-26T01:53:05.560Z,7.80
2019-06-26T01:54:05.579Z,7.50
2019-06-26T01:55:05.579Z,7.30
2019-06-26T01:56:05.556Z,8.00
2019-06-26T01:57:05.549Z,7.80
2019-06-26T01:58:05.550Z,8.70
2019-06-26T01:59:05.544Z,9.30
2019-06-26T02:00:05.543Z,9.10
2019-06-26T02:01:05.543Z,8.30
2019-06-26T02:02:05.540Z,7.80
2019-06-26T02:03:05.540Z,8.40
2019-06-26T02:04:05.530Z,9.50
2019-06-26T02:05:05.607Z,9.20
2019-06-26T02:06:05.529Z,8.60
2019-06-26T02:07:05.558Z,8.20
2019-06-26T02:08:05.518Z,8.20
2019-06-26T02:09:05.518Z,8.80
2019-06-26T02:10:05.528Z,8.60
2019-06-26T02:11:05.510Z,7.80
2019-06-26T02:12:05.509Z,8.00
2019-06-26T02:13:05.508Z,8.00
2019-06-26T02:14:05.569Z,8.20
2019-06-26T02:15:05.501Z,6.70
2019-06-26T02:16:05.496Z,7.60
2019-06-26T02:17:05.494Z,8.70
2019-06-26T02:18:05.491Z,7.60
2019-06-26T02:19:05.487Z,8.40
2019-06-26T02:20:05.490Z,8.10
2019-06-26T02:21:05.484Z,7.70
2019-06-26T02:22:05.544Z,7.90
2019-06-26T02:23:05.476Z,8.30
2019-06-26T02:24:05.474Z,8.20
2019-06-26T02:25:05.469Z,7.80
2019-06-26T02:26:05.471Z,7.30
2019-06-26T02:27:05.464Z,8.10
2019-06-26T02:28:05.469Z,7.80
2019-06-26T02:29:05.461Z,7.50
2019-06-26T02:30:05.463Z,8.40
2019-06-26T02:31:05.456Z,8.00
2019-06-26T02:32:05.467Z,8.60
2019-06-26T02:33:05.447Z,8.30
2019-06-26T02:34:05.456Z,8.10
2019-06-26T02:35:09.336Z,8.20
2019-06-26T02:36:05.477Z,8.30
2019-06-26T02:37:05.439Z,8.70
2019-06-26T02:38:05.441Z,8.10
2019-06-26T02:39:05.435Z,7.90
2019-06-26T02:40:05.427Z,8.50
2019-06-26T02:41:05.426Z,7.80
2019-06-26T02:42:05.430Z,7.60
2019-06-26T02:43:07.160Z,7.80
2019-06-26T02:44:05.425Z,8.10
2019-06-26T02:45:05.416Z,8.40
2019-06-26T02:46:05.488Z,8.00
2019-06-26T02:47:18.470Z,7.80
2019-06-26T02:48:05.405Z,8.10
2019-06-26T02:49:05.408Z,7.50
2019-06-26T02:50:05.399Z,8.00
2019-06-26T02:51:05.399Z,8.50
2019-06-26T02:52:05.397Z,7.70
2019-06-26T02:53:05.397Z,7.80
2019-06-26T02:54:05.388Z,8.00
2019-06-26T02:55:05.385Z,8.50
2019-06-26T02:56:05.397Z,8.10
2019-06-26T02:57:05.381Z,7.80
2019-06-26T02:58:05.387Z,8.30
2019-06-26T02:59:05.377Z,8.50
2019-06-26T03:00:05.388Z,8.60
2019-06-26T03:01:05.372Z,8.00
2019-06-26T03:02:05.366Z,8.20
2019-06-26T03:03:05.368Z,7.70
2019-06-26T03:04:05.358Z,7.70
2019-06-26T03:05:05.356Z,7.70
2019-06-26T03:30:43.745Z,7.80
2019-06-26T03:31:43.735Z,8.20
2019-06-26T03:32:43.720Z,8.50
2019-06-26T03:33:43.717Z,8.40
2019-06-26T03:34:43.714Z,8.30
2019-06-26T03:35:43.710Z,8.40
2019-06-26T03:36:43.708Z,8.90
2019-06-26T03:49:30.884Z,9.20
2019-06-26T03:50:30.885Z,9.20
2019-06-26T03:51:30.878Z,9.00
2019-06-26T03:52:30.874Z,8.60
2019-06-26T03:53:30.921Z,8.10
2019-06-26T03:54:31.152Z,8.50
2019-06-26T03:55:30.865Z,9.10
2019-06-26T03:56:30.861Z,8.80
2019-06-26T03:57:30.857Z,8.80
2019-06-26T03:58:30.854Z,8.60
2019-06-26T03:59:30.854Z,8.30
2019-06-26T04:00:30.865Z,9.30
2019-06-26T04:01:30.860Z,9.30
2019-06-26T04:02:30.846Z,9.50
2019-06-26T04:03:30.841Z,9.40
2019-06-26T04:04:30.839Z,8.60
2019-06-26T04:05:30.835Z,8.40
2019-06-26T04:06:30.832Z,9.30
2019-06-26T04:07:30.831Z,8.90
2019-06-26T04:08:30.829Z,8.40
2019-06-26T04:09:30.824Z,9.10
2019-06-26T04:10:30.823Z,8.70
2019-06-26T04:11:30.820Z,8.40
2019-06-26T04:12:30.814Z,8.40
2019-06-26T04:13:30.813Z,8.90
2019-06-26T04:14:30.809Z,8.40
2019-06-26T04:15:41.307Z,8.90
2019-06-26T04:16:30.805Z,8.50
2019-06-26T04:17:30.800Z,8.50
2019-06-26T04:18:30.799Z,8.70
2019-06-26T04:19:30.797Z,8.50
2019-06-26T04:20:30.794Z,8.40
2019-06-26T04:21:30.797Z,9.30
2019-06-26T04:22:30.789Z,8.70
2019-06-26T04:23:30.786Z,9.00
2019-06-26T04:24:30.782Z,8.00
2019-06-26T04:25:30.786Z,8.80
2019-06-26T04:26:30.780Z,8.20
2019-06-26T04:31:54.791Z,8.80
2019-06-26T04:32:54.787Z,8.50
2019-06-26T04:33:54.782Z,8.50
2019-06-26T04:34:54.781Z,8.20
2019-06-26T04:35:54.781Z,8.00
2019-06-26T04:36:54.781Z,8.20
2019-06-26T04:37:54.777Z,8.40
2019-06-26T04:38:54.777Z,7.90
2019-06-26T04:39:54.788Z,8.40
2019-06-26T04:40:54.772Z,7.70
2019-06-26T04:41:54.776Z,8.40
2019-06-26T04:48:52.063Z,8.30
2019-06-26T04:49:52.061Z,8.20
2019-06-26T04:53:27.785Z,8.20
2019-06-26T04:54:27.786Z,7.60
2019-06-26T04:56:30.251Z,8.10
2019-06-26T04:57:30.250Z,8.00
2019-06-26T05:07:53.565Z,8.30
2019-06-26T05:12:28.911Z,8.70
2019-06-26T05:13:28.913Z,8.60
2019-06-26T05:15:39.415Z,9.10
2019-06-26T05:16:36.391Z,8.00
2019-06-26T05:18:43.868Z,8.20
2019-06-26T05:21:14.008Z,7.80
2019-06-26T05:22:11.386Z,8.10
2019-06-26T05:23:11.398Z,7.60
2019-06-26T05:24:11.390Z,9.40
2019-06-26T05:25:11.393Z,7.90
2019-06-26T05:26:11.395Z,8.80
2019-06-26T05:27:11.395Z,8.40
2019-06-26T05:28:11.411Z,8.30
2019-06-26T05:29:11.397Z,8.00
2019-06-26T05:30:11.400Z,7.90
2019-06-26T05:31:11.412Z,8.50
2019-06-26T05:32:11.406Z,8.20
2019-06-26T05:33:11.403Z,8.70
2019-06-26T05:34:11.407Z,9.30
2019-06-26T05:35:11.413Z,8.50
2019-06-26T05:36:11.408Z,9.20
2019-06-26T05:37:11.410Z,9.50
2019-06-26T05:38:11.411Z,9.70
2019-06-26T05:41:37.125Z,10.10
2019-06-26T05:45:37.903Z,10.80
2019-06-26T05:46:37.901Z,10.10
2019-06-26T05:47:37.902Z,11.10
2019-06-26T05:48:37.903Z,10.10
2019-06-26T05:49:37.902Z,9.40
2019-06-26T05:50:37.904Z,10.20
2019-06-26T05:51:37.904Z,10.10
2019-06-26T05:52:41.995Z,10.30
2019-06-26T05:53:37.901Z,9.70
2019-06-26T05:54:37.901Z,11.10
2019-06-26T05:55:37.905Z,10.50
2019-06-26T05:56:37.902Z,10.30
2019-06-26T05:57:41.486Z,10.40
2019-06-26T05:58:37.904Z,9.90
2019-06-26T05:59:37.903Z,10.00
2019-06-26T06:00:37.908Z,10.30
2019-06-26T06:01:37.904Z,10.00
2019-06-26T06:02:37.907Z,9.60
2019-06-26T06:03:37.904Z,10.80
2019-06-26T06:04:37.906Z,9.40
2019-06-26T06:05:37.906Z,9.20
2019-06-26T06:06:42.070Z,10.20
2019-06-26T06:07:37.905Z,9.50
2019-06-26T06:08:37.906Z,9.00
2019-06-26T06:09:37.905Z,9.90
2019-06-26T06:10:37.907Z,8.60
2019-06-26T06:11:37.905Z,8.50
2019-06-26T06:12:37.907Z,9.00
2019-06-26T06:13:37.906Z,8.60
2019-06-26T06:14:37.930Z,8.30
2019-06-26T06:15:37.924Z,9.40
2019-06-26T06:16:47.193Z,8.70
2019-06-26T06:17:37.909Z,9.10
2019-06-26T06:18:37.909Z,8.80
2019-06-26T06:19:37.911Z,8.10
2019-06-26T06:20:37.929Z,9.20
2019-06-26T06:21:37.911Z,9.00
2019-06-26T06:22:37.910Z,8.60
2019-06-26T06:23:37.916Z,9.20
2019-06-26T06:24:37.916Z,9.40
2019-06-26T06:28:38.689Z,9.00
2019-06-26T06:30:21.116Z,9.10
2019-06-26T06:31:21.112Z,9.00
2019-06-26T06:32:21.116Z,8.50
2019-06-26T06:33:21.113Z,8.50
2019-06-26T06:34:21.122Z,8.30
2019-06-26T06:35:21.114Z,8.50
2019-06-26T06:36:21.116Z,8.80
2019-06-26T06:43:33.433Z,9.10
2019-06-26T06:44:33.433Z,9.00
2019-06-26T06:45:33.441Z,8.80
2019-06-26T06:46:33.438Z,9.10
2019-06-26T06:47:33.440Z,9.40
2019-06-26T06:48:33.440Z,8.70
2019-06-26T06:49:33.445Z,8.90
2019-06-26T06:50:33.441Z,9.70
2019-06-26T06:51:33.439Z,9.40
2019-06-26T06:52:33.441Z,8.00
2019-06-26T06:57:11.636Z,8.80
2019-06-26T06:58:11.637Z,8.40
2019-06-26T06:59:11.640Z,9.00
2019-06-26T07:00:11.646Z,8.70
2019-06-26T07:01:11.647Z,8.50
2019-06-26T07:02:11.639Z,9.20
2019-06-26T07:03:11.644Z,9.10
2019-06-26T07:04:11.645Z,8.70
2019-06-26T07:05:11.642Z,8.80
2019-06-26T07:06:11.643Z,8.70
2019-06-26T07:07:11.647Z,8.80
2019-06-26T07:08:11.646Z,9.10
2019-06-26T07:09:11.652Z,8.20
2019-06-26T07:11:44.170Z,9.00
2019-06-26T07:12:44.174Z,9.20
2019-06-26T07:13:44.172Z,9.40
2019-06-26T07:14:44.174Z,8.90
2019-06-26T07:15:44.178Z,9.10
2019-06-26T07:16:44.177Z,8.90
2019-06-26T07:17:44.182Z,9.80
2019-06-26T07:19:31.614Z,9.80
2019-06-26T07:20:31.616Z,9.30
2019-06-26T07:21:31.617Z,9.20
2019-06-26T07:22:31.621Z,9.40
2019-06-26T07:23:31.621Z,9.70
2019-06-26T07:24:31.622Z,9.10
2019-06-26T07:25:31.625Z,9.70
2019-06-26T07:26:31.625Z,9.40
2019-06-26T07:27:31.623Z,10.20
2019-06-26T07:28:31.626Z,10.50
2019-06-26T07:29:31.630Z,9.60
2019-06-26T07:30:31.629Z,9.50
2019-06-26T07:31:31.632Z,9.50
2019-06-26T07:32:31.634Z,9.70
2019-06-26T07:33:31.635Z,9.30
2019-06-26T07:34:31.636Z,9.30
2019-06-26T07:35:31.647Z,9.50
2019-06-26T07:36:31.640Z,9.30
2019-06-26T07:37:31.642Z,9.50
2019-06-26T07:38:31.645Z,9.60
2019-06-26T07:39:31.644Z,9.50
2019-06-26T07:40:31.645Z,9.40
2019-06-26T07:41:31.654Z,8.80
2019-06-26T07:42:31.656Z,8.90
2019-06-26T07:43:31.649Z,9.40
2019-06-26T07:44:31.711Z,9.10
2019-06-26T07:45:31.654Z,9.20
2019-06-26T07:46:31.654Z,8.60
2019-06-26T07:47:42.399Z,10.30
2019-06-26T07:48:31.658Z,8.80
2019-06-26T07:49:31.657Z,9.10
2019-06-26T07:50:32.710Z,8.80
2019-06-26T07:51:31.661Z,9.50
2019-06-26T07:52:31.664Z,8.50
2019-06-26T07:53:31.669Z,10.10
2019-06-26T07:54:31.667Z,9.50
2019-06-26T07:55:31.673Z,10.10
2019-06-26T07:56:31.670Z,10.00
2019-06-26T07:57:31.674Z,9.20
2019-06-26T07:58:31.673Z,9.10
2019-06-26T07:59:31.675Z,9.10
2019-06-26T08:00:32.012Z,8.90
2019-06-26T08:01:31.683Z,8.90
2019-06-26T08:02:31.726Z,8.80
2019-06-26T08:03:31.689Z,9.00
2019-06-26T08:04:31.684Z,9.10
2019-06-26T08:05:34.310Z,8.80
2019-06-26T08:18:58.685Z,8.90
2019-06-26T08:19:58.689Z,9.00
2019-06-26T08:24:04.474Z,9.10
2019-06-26T08:25:04.474Z,9.10
2019-06-26T08:26:04.475Z,9.30
2019-06-26T08:27:04.478Z,8.70
2019-06-26T08:28:04.484Z,9.80
2019-06-26T08:29:04.484Z,9.30
2019-06-26T08:30:04.486Z,9.20
2019-06-26T08:31:04.486Z,8.70
2019-06-26T08:32:04.527Z,9.20
2019-06-26T08:33:04.489Z,8.50
2019-06-26T08:40:31.851Z,8.60
2019-06-26T08:41:31.854Z,8.50
2019-06-26T08:42:31.855Z,8.90
2019-06-26T08:43:31.865Z,8.40
2019-06-26T08:44:31.862Z,8.10
2019-06-26T08:51:44.197Z,8.70
2019-06-26T08:52:44.207Z,8.40
2019-06-26T08:53:44.204Z,8.80
2019-06-26T08:54:44.268Z,8.90
2019-06-26T08:55:44.211Z,8.30
2019-06-26T08:56:44.617Z,8.80
2019-06-26T08:57:44.216Z,9.10
2019-06-26T08:58:44.218Z,8.90
2019-06-26T08:59:44.218Z,8.50
2019-06-26T09:00:44.227Z,8.30
2019-06-26T09:01:44.235Z,8.20
2019-06-26T09:02:44.233Z,8.00
2019-06-26T09:05:11.746Z,7.30
2019-06-26T09:10:20.754Z,8.20
2019-06-26T09:13:05.649Z,8.10
2019-06-26T09:27:31.194Z,8.10
2019-06-26T09:28:31.193Z,6.90
2019-06-26T09:29:31.199Z,7.70
2019-06-26T09:30:31.198Z,8.10
2019-06-26T09:31:31.207Z,7.70
2019-06-26T09:42:42.529Z,6.90
2019-06-26T09:43:42.532Z,6.70
2019-06-26T09:44:42.537Z,7.40
2019-06-26T09:45:42.542Z,7.30
2019-06-26T09:46:42.548Z,7.20
2019-06-26T09:47:42.548Z,6.50
2019-06-26T09:50:00.171Z,6.60
2019-06-26T09:51:00.176Z,6.90
2019-06-26T09:52:00.185Z,7.30
2019-06-26T09:53:00.191Z,6.80
2019-06-26T09:54:00.189Z,7.40
2019-06-26T09:55:00.191Z,6.70
2019-06-26T09:56:00.196Z,6.70
2019-06-26T09:57:00.200Z,6.70
2019-06-26T09:58:00.225Z,6.20
2019-06-26T10:12:11.585Z,7.50
2019-06-26T10:15:37.304Z,7.70
2019-06-26T10:19:54.258Z,7.90
2019-06-26T10:20:53.131Z,7.40
2019-06-26T10:21:53.186Z,7.50
2019-06-26T10:22:53.137Z,8.00
2019-06-26T10:23:53.143Z,7.80
2019-06-26T10:24:53.145Z,8.00
2019-06-26T10:25:53.239Z,7.90
2019-06-26T10:26:53.156Z,8.00
2019-06-26T10:27:53.156Z,8.10
2019-06-26T10:28:53.162Z,7.60
2019-06-26T10:29:53.169Z,8.10
2019-06-26T10:30:53.170Z,8.30
2019-06-26T10:31:53.175Z,7.90
2019-06-26T10:32:53.191Z,7.70
2019-06-26T10:33:53.182Z,7.70
2019-06-26T10:34:53.187Z,7.80
2019-06-26T10:35:53.193Z,7.30
2019-06-26T10:36:53.197Z,7.30
2019-06-26T10:37:53.215Z,7.80
2019-06-26T10:38:53.210Z,8.20
2019-06-26T10:39:53.219Z,7.60
2019-06-26T10:40:53.218Z,7.40
2019-06-26T10:41:55.021Z,7.70
2019-06-26T10:42:53.236Z,8.20
2019-06-26T10:43:53.241Z,8.30
2019-06-26T10:44:53.235Z,8.10
2019-06-26T10:45:53.239Z,8.00
2019-06-26T10:46:53.247Z,8.00
2019-06-26T10:47:53.251Z,8.20
2019-06-26T10:48:53.253Z,7.40
2019-06-26T10:49:53.264Z,8.10
2019-06-26T10:50:58.564Z,7.50
2019-06-26T10:51:53.268Z,7.70
2019-06-26T10:52:53.271Z,7.90
2019-06-26T10:53:53.276Z,8.30
2019-06-26T10:54:53.283Z,7.40
2019-06-26T10:55:53.289Z,7.70
2019-06-26T10:56:53.292Z,8.00
2019-06-26T10:57:53.305Z,7.90
2019-06-26T10:58:53.309Z,7.40
2019-06-26T10:59:55.771Z,7.90
2019-06-26T11:00:53.314Z,7.90
2019-06-26T11:01:53.318Z,8.10
2019-06-26T11:02:53.324Z,8.40
2019-06-26T11:03:53.325Z,7.70
2019-06-26T11:04:53.331Z,7.80
2019-06-26T11:05:53.337Z,8.10
2019-06-26T11:06:53.343Z,8.40
2019-06-26T11:07:53.345Z,8.30
2019-06-26T11:08:53.353Z,8.20
2019-06-26T11:09:53.370Z,7.80
2019-06-26T11:10:53.368Z,8.30
2019-06-26T11:11:53.365Z,7.70
2019-06-26T11:12:53.367Z,8.00
2019-06-26T11:13:53.374Z,8.30
2019-06-26T11:14:53.385Z,7.90
2019-06-26T11:15:53.384Z,7.90
2019-06-26T11:16:53.389Z,7.40
2019-06-26T11:17:53.393Z,8.30
2019-06-26T11:18:53.408Z,8.00
2019-06-26T11:19:55.498Z,7.80
2019-06-26T11:20:53.418Z,7.10
2019-06-26T11:21:53.411Z,7.50
2019-06-26T11:22:53.431Z,8.10
2019-06-26T11:23:53.428Z,8.10
2019-06-26T11:24:53.440Z,8.10
2019-06-26T11:25:53.431Z,7.60
2019-06-26T11:26:53.439Z,8.10
2019-06-26T11:27:53.448Z,8.10
2019-06-26T11:28:53.450Z,8.40
2019-06-26T11:29:53.463Z,7.70
2019-06-26T11:30:53.456Z,7.70
2019-06-26T11:31:53.469Z,8.70
2019-06-26T11:32:53.468Z,8.60
2019-06-26T11:33:53.477Z,8.30
2019-06-26T11:34:53.480Z,8.40
2019-06-26T11:35:53.510Z,8.00
2019-06-26T11:37:03.185Z,8.00
2019-06-26T11:37:53.494Z,8.00
2019-06-26T11:38:53.499Z,8.10
2019-06-26T11:39:53.504Z,8.00
2019-06-26T11:40:53.659Z,8.10
2019-06-26T11:41:53.526Z,8.20
2019-06-26T11:42:53.519Z,8.30
2019-06-26T11:43:53.532Z,8.80
2019-06-26T11:44:53.538Z,8.10
2019-06-26T11:45:53.533Z,8.50
2019-06-26T11:46:53.565Z,7.80
2019-06-26T11:47:53.547Z,8.40
2019-06-26T11:48:53.549Z,7.80
2019-06-26T11:50:00.027Z,7.70
2019-06-26T11:50:53.563Z,8.20
2019-06-26T11:51:53.565Z,7.40
2019-06-26T11:52:53.573Z,8.20
2019-06-26T11:53:53.578Z,8.30
2019-06-26T11:55:02.460Z,8.10
2019-06-26T11:55:53.584Z,8.70
2019-06-26T11:56:53.591Z,8.10
2019-06-26T11:57:53.614Z,7.80
2019-06-26T11:58:53.611Z,8.40
2019-06-26T11:59:53.648Z,7.80
2019-06-26T12:00:53.614Z,8.40
2019-06-26T12:01:53.682Z,8.10
2019-06-26T12:02:53.624Z,7.60
2019-06-26T12:03:53.631Z,7.80
2019-06-26T12:04:53.651Z,8.60
2019-06-26T12:05:53.644Z,7.20
2019-06-26T12:06:53.644Z,8.30
2019-06-26T12:07:53.650Z,7.80
2019-06-26T12:08:53.655Z,7.30
2019-06-26T12:09:53.748Z,7.80
2019-06-26T12:10:53.665Z,8.00
2019-06-26T12:11:53.673Z,7.70
2019-06-26T12:12:53.679Z,7.80
2019-06-26T12:13:53.682Z,7.30
2019-06-26T12:14:53.688Z,7.20
2019-06-26T12:15:53.694Z,7.70
2019-06-26T12:16:53.701Z,8.00
2019-06-26T12:17:53.708Z,7.60
2019-06-26T12:18:53.715Z,7.50
2019-06-26T12:19:53.718Z,7.60
2019-06-26T12:20:53.721Z,7.60
2019-06-26T12:21:53.726Z,7.60
2019-06-26T12:22:53.734Z,8.00
2019-06-26T12:23:53.741Z,7.80
2019-06-26T12:24:53.744Z,7.70
2019-06-26T12:25:53.747Z,7.70
2019-06-26T12:26:53.756Z,7.80
2019-06-26T12:27:53.764Z,7.30
2019-06-26T12:28:53.765Z,7.60
2019-06-26T12:29:53.778Z,6.80
2019-06-26T12:30:53.777Z,7.60
2019-06-26T12:31:53.788Z,7.60
2019-06-26T12:33:02.744Z,7.50
2019-06-26T12:33:53.791Z,7.00
2019-06-26T12:34:53.798Z,6.70
2019-06-26T12:35:53.804Z,6.80
2019-06-26T12:36:53.810Z,7.10
2019-06-26T12:37:53.816Z,6.90
2019-06-26T12:38:53.820Z,6.90
2019-06-26T12:39:53.829Z,6.80
2019-06-26T12:40:53.832Z,7.30
2019-06-26T12:41:53.838Z,7.30
2019-06-26T12:42:55.696Z,7.20
2019-06-26T12:43:53.853Z,7.20
2019-06-26T12:44:53.858Z,6.70
2019-06-26T12:45:53.860Z,7.00
2019-06-26T12:46:53.866Z,7.20
2019-06-26T12:47:53.874Z,7.10
2019-06-26T12:48:53.880Z,6.50
2019-06-26T12:49:54.102Z,6.40
2019-06-26T12:50:55.307Z,6.80
2019-06-26T12:51:53.896Z,7.20
2019-06-26T12:52:53.902Z,6.80
2019-06-26T12:53:53.909Z,7.20
2019-06-26T12:54:53.914Z,6.80
2019-06-26T12:55:53.919Z,6.80
2019-06-26T12:56:53.924Z,7.30
2019-06-26T12:57:53.932Z,6.60
2019-06-26T12:58:53.939Z,5.90
2019-06-26T12:59:57.774Z,6.60
2019-06-26T13:00:53.953Z,6.60
2019-06-26T13:01:53.957Z,7.40
2019-06-26T13:02:53.961Z,6.60
2019-06-26T13:03:53.971Z,6.70
2019-06-26T13:04:53.972Z,6.80
2019-06-26T13:05:54.054Z,6.40
2019-06-26T13:06:53.985Z,6.80
2019-06-26T13:07:53.991Z,6.30
2019-06-26T13:08:53.997Z,5.80
2019-06-26T13:09:54.003Z,6.80
2019-06-26T13:10:54.009Z,6.20
2019-06-26T13:11:54.015Z,6.00
2019-06-26T13:12:54.024Z,6.30
2019-06-26T13:14:02.506Z,6.70
2019-06-26T13:14:54.034Z,6.80
2019-06-26T13:15:54.041Z,6.20
2019-06-26T13:16:54.046Z,6.10
2019-06-26T13:17:54.073Z,6.30
2019-06-26T13:18:54.088Z,6.20
2019-06-26T13:19:54.066Z,5.80
2019-06-26T13:20:54.101Z,5.70
2019-06-26T13:21:54.082Z,6.10
2019-06-26T13:22:54.111Z,6.40
2019-06-26T13:23:54.087Z,6.20
2019-06-26T13:24:54.107Z,6.00
2019-06-26T13:25:54.099Z,6.00
2019-06-26T13:26:54.677Z,5.70
2019-06-26T13:27:54.112Z,5.80
2019-06-26T13:28:54.114Z,6.00
2019-06-26T13:29:54.290Z,5.90
2019-06-26T13:30:54.128Z,5.70
2019-06-26T13:31:54.133Z,5.50
2019-06-26T13:32:54.139Z,6.40
2019-06-26T13:33:54.145Z,5.90
2019-06-26T13:34:54.155Z,5.90
2019-06-26T13:35:54.159Z,5.70
2019-06-26T13:36:54.164Z,5.70
2019-06-26T13:37:54.166Z,5.80
2019-06-26T13:38:54.174Z,6.30
2019-06-26T13:39:54.182Z,5.50
2019-06-26T13:40:54.187Z,5.50
2019-06-26T13:41:54.200Z,5.80
2019-06-26T13:42:54.197Z,5.60
2019-06-26T13:43:54.203Z,5.10
2019-06-26T13:44:54.209Z,5.30
2019-06-26T13:45:54.219Z,5.20
2019-06-26T13:46:54.222Z,5.30
2019-06-26T13:47:54.231Z,5.40
2019-06-26T13:48:54.241Z,5.10
2019-06-26T13:49:54.239Z,5.80
2019-06-26T13:51:08.056Z,6.10
2019-06-26T13:51:54.251Z,5.40
2019-06-26T13:52:54.270Z,5.50
2019-06-26T13:53:54.261Z,5.90
2019-06-26T13:54:57.229Z,5.60
2019-06-26T13:55:54.273Z,5.90
2019-06-26T13:56:54.278Z,5.60
2019-06-26T13:57:54.284Z,5.20
2019-06-26T13:58:54.291Z,5.10
2019-06-26T13:59:54.299Z,6.00
2019-06-26T14:00:54.303Z,5.10
2019-06-26T14:01:54.307Z,4.90
2019-06-26T14:02:54.317Z,5.60
2019-06-26T14:03:54.329Z,5.60
2019-06-26T14:04:54.345Z,5.70
2019-06-26T14:05:54.330Z,5.60
2019-06-26T14:06:54.338Z,6.00
2019-06-26T14:07:54.344Z,5.40
2019-06-26T14:08:54.348Z,5.50
2019-06-26T14:09:54.354Z,5.50
2019-06-26T14:10:54.362Z,5.90
2019-06-26T14:11:54.365Z,5.30
2019-06-26T14:12:54.373Z,5.40
2019-06-26T14:13:54.387Z,5.20
2019-06-26T14:14:57.632Z,5.90
2019-06-26T14:15:54.388Z,6.20
2019-06-26T14:16:54.394Z,5.70
2019-06-26T14:17:54.401Z,5.50
2019-06-26T14:18:54.408Z,6.10
2019-06-26T14:19:54.411Z,5.90
2019-06-26T14:20:54.420Z,5.30
2019-06-26T14:21:54.424Z,5.90
2019-06-26T14:22:54.431Z,5.60
2019-06-26T14:23:54.443Z,5.80
2019-06-26T14:24:54.485Z,4.90
2019-06-26T14:25:54.447Z,5.00
2019-06-26T14:26:54.454Z,5.40
2019-06-26T14:27:54.460Z,5.00
2019-06-26T14:28:54.470Z,6.00
2019-06-26T14:29:54.474Z,5.60
2019-06-26T14:30:54.477Z,5.50
2019-06-26T14:31:54.488Z,5.30
2019-06-26T14:32:54.490Z,5.70
2019-06-26T14:33:54.496Z,5.50
2019-06-26T14:34:54.504Z,5.00
2019-06-26T14:35:54.507Z,5.60
2019-06-26T14:36:54.513Z,5.10
2019-06-26T14:37:54.521Z,5.60
2019-06-26T14:38:54.523Z,5.20
2019-06-26T14:39:54.528Z,5.40
2019-06-26T14:40:54.536Z,5.30
2019-06-26T14:41:54.543Z,5.40
2019-06-26T14:42:54.546Z,5.60
2019-06-26T14:43:54.555Z,5.30
2019-06-26T14:44:54.635Z,5.70
2019-06-26T14:45:54.567Z,5.10
2019-06-26T14:46:54.572Z,5.80
2019-06-26T14:47:54.586Z,5.30
2019-06-26T14:48:54.584Z,5.70
2019-06-26T14:49:54.589Z,5.30
2019-06-26T14:50:54.604Z,5.50
2019-06-26T14:51:54.606Z,5.30
2019-06-26T14:52:54.604Z,5.30
2019-06-26T14:53:54.614Z,5.50
2019-06-26T14:54:54.618Z,5.40
2019-06-26T14:55:54.628Z,6.10
2019-06-26T14:56:54.628Z,5.10
2019-06-26T14:57:54.636Z,5.20
2019-06-26T14:58:54.642Z,5.20
2019-06-26T14:59:54.651Z,5.10
2019-06-26T15:00:54.656Z,5.00
2019-06-26T15:01:54.656Z,4.90
2019-06-26T15:02:54.667Z,4.70
2019-06-26T15:03:54.671Z,5.10
2019-06-26T15:04:54.675Z,5.70
2019-06-26T15:05:54.684Z,4.80
2019-06-26T15:06:54.685Z,5.00
2019-06-26T15:07:54.691Z,4.70
2019-06-26T15:08:54.696Z,5.40
2019-06-26T15:09:54.707Z,4.90
2019-06-26T15:10:54.709Z,5.30
2019-06-26T15:11:54.714Z,4.90
2019-06-26T15:12:54.720Z,5.50
2019-06-26T15:13:54.731Z,5.50
2019-06-26T15:14:54.731Z,5.20
2019-06-26T15:15:54.988Z,5.40
2019-06-26T15:16:54.742Z,5.60
2019-06-26T15:17:54.749Z,5.60
2019-06-26T15:18:54.756Z,4.90
2019-06-26T15:19:54.759Z,5.40
2019-06-26T15:20:54.765Z,5.50
2019-06-26T15:21:58.816Z,4.90
2019-06-26T15:22:58.541Z,5.50
2019-06-26T15:23:54.780Z,4.70
2019-06-26T15:24:54.790Z,4.80
2019-06-26T15:25:54.793Z,5.30
2019-06-26T15:26:54.801Z,5.00
2019-06-26T15:27:54.803Z,5.60
2019-06-26T15:28:54.810Z,5.30
2019-06-26T15:29:54.816Z,5.20
2019-06-26T15:30:54.821Z,4.90
2019-06-26T15:31:54.826Z,5.70
2019-06-26T15:32:54.833Z,5.10
2019-06-26T15:33:54.838Z,5.30
2019-06-26T15:34:54.843Z,5.40
2019-06-26T15:35:54.847Z,5.30
2019-06-26T15:36:54.853Z,4.80
2019-06-26T15:37:54.858Z,5.00
2019-06-26T15:38:54.865Z,5.30
2019-06-26T15:39:54.873Z,5.10
2019-06-26T15:40:54.877Z,4.90
2019-06-26T15:41:54.878Z,5.60
2019-06-26T15:42:54.887Z,4.70
2019-06-26T15:43:54.891Z,5.10
2019-06-26T15:44:54.899Z,5.20
2019-06-26T15:45:54.906Z,5.30
2019-06-26T15:46:54.904Z,5.30
2019-06-26T15:47:54.910Z,5.60
2019-06-26T15:48:54.917Z,5.00
2019-06-26T15:49:54.937Z,5.30
2019-06-26T15:50:54.925Z,5.70
2019-06-26T15:51:54.932Z,5.10
2019-06-26T15:52:54.938Z,6.00
2019-06-26T15:53:54.945Z,5.80
2019-06-26T15:54:54.950Z,6.20
2019-06-26T15:55:54.954Z,5.10
2019-06-26T15:56:54.958Z,5.30
2019-06-26T15:57:54.963Z,5.30
2019-06-26T15:58:54.973Z,4.80
2019-06-26T15:59:54.975Z,5.10
2019-06-26T16:00:54.995Z,5.80
2019-06-26T16:01:54.985Z,4.90
2019-06-26T16:02:54.991Z,6.00
2019-06-26T16:03:54.995Z,5.20
2019-06-26T16:04:55.002Z,5.70
2019-06-26T16:05:55.007Z,5.80
2019-06-26T16:06:55.010Z,5.70
2019-06-26T16:07:55.018Z,4.90
2019-06-26T16:08:55.022Z,5.80
2019-06-26T16:09:55.027Z,5.60
2019-06-26T16:10:55.032Z,5.20
2019-06-26T16:11:58.736Z,4.80
2019-06-26T16:12:55.054Z,5.80
2019-06-26T16:13:55.048Z,5.20
2019-06-26T16:14:55.055Z,5.10
2019-06-26T16:15:55.060Z,5.10
2019-06-26T16:16:55.065Z,5.60
2019-06-26T16:17:55.070Z,5.20
2019-06-26T16:18:55.081Z,5.30
2019-06-26T16:19:55.082Z,4.80